createdAt,value
2022-08-23T00:02:28.303Z,21.72
2022-08-23T00:05:09.382Z,21.67
2022-08-23T00:07:39.792Z,21.66
2022-08-23T00:10:10.698Z,21.62
2022-08-23T00:12:39.817Z,21.58
2022-08-23T00:15:11.398Z,21.49
2022-08-23T00:17:42.314Z,21.41
2022-08-23T00:20:17.868Z,21.33
2022-08-23T00:22:46.507Z,21.27
2022-08-23T00:25:16.465Z,21.20
2022-08-23T00:27:45.431Z,21.13
2022-08-23T00:30:16.122Z,21.08
2022-08-23T00:32:46.884Z,21.03
2022-08-23T00:35:27.169Z,21.00
2022-08-23T00:38:31.917Z,20.98
2022-08-23T00:40:52.042Z,20.92
2022-08-23T00:43:48.387Z,20.86
2022-08-23T00:46:53.682Z,20.81
2022-08-23T00:49:23.969Z,20.75
2022-08-23T00:51:58.461Z,20.73
2022-08-23T00:54:30.301Z,20.69
2022-08-23T00:57:03.060Z,20.62
2022-08-23T00:59:31.483Z,20.59
2022-08-23T01:02:00.850Z,20.55
2022-08-23T01:04:37.921Z,20.53
2022-08-23T01:07:14.445Z,20.52
2022-08-23T01:09:45.431Z,20.52
2022-08-23T01:12:32.713Z,20.44
2022-08-23T01:15:07.098Z,20.39
2022-08-23T01:17:42.511Z,20.35
2022-08-23T01:20:18.025Z,20.37
2022-08-23T01:22:58.777Z,20.35
2022-08-23T01:25:32.852Z,20.31
2022-08-23T01:28:01.450Z,20.24
2022-08-23T01:30:33.906Z,20.20
2022-08-23T01:33:07.405Z,20.17
2022-08-23T01:35:41.191Z,20.13
2022-08-23T01:38:11.661Z,20.10
2022-08-23T01:40:42.861Z,20.05
2022-08-23T01:43:13.620Z,19.95
2022-08-23T01:45:43.992Z,19.90
2022-08-23T01:48:15.387Z,19.86
2022-08-23T01:50:43.723Z,19.84
2022-08-23T01:53:14.928Z,19.78
2022-08-23T01:55:49.442Z,19.77
2022-08-23T01:58:20.034Z,19.72
2022-08-23T02:00:49.072Z,19.68
2022-08-23T02:03:17.493Z,19.64
2022-08-23T02:05:46.046Z,19.59
2022-08-23T02:08:32.363Z,19.55
2022-08-23T02:11:10.196Z,19.55
2022-08-23T02:13:41.275Z,19.52
2022-08-23T02:16:14.929Z,19.48
2022-08-23T02:18:43.798Z,19.44
2022-08-23T02:21:13.406Z,19.38
2022-08-23T02:23:41.869Z,19.31
2022-08-23T02:26:11.605Z,19.26
2022-08-23T02:28:40.560Z,19.20
2022-08-23T02:31:09.218Z,19.17
2022-08-23T02:33:40.438Z,19.14
2022-08-23T02:36:09.752Z,19.09
2022-08-23T02:38:38.143Z,19.06
2022-08-23T02:41:07.191Z,19.06
2022-08-23T02:43:40.911Z,19.06
2022-08-23T02:46:10.550Z,19.01
2022-08-23T02:48:39.646Z,18.95
2022-08-23T02:51:10.605Z,18.88
2022-08-23T02:53:39.056Z,18.84
2022-08-23T02:56:21.267Z,18.79
2022-08-23T02:58:54.341Z,18.69
2022-08-23T03:01:27.069Z,18.63
2022-08-23T03:03:58.786Z,18.61
2022-08-23T03:06:29.384Z,18.54
2022-08-23T03:08:58.442Z,18.46
2022-08-23T03:11:27.405Z,18.40
2022-08-23T03:13:57.499Z,18.32
2022-08-23T03:16:26.309Z,18.27
2022-08-23T03:18:55.097Z,18.18
2022-08-23T03:21:24.073Z,18.13
2022-08-23T03:23:53.476Z,18.14
2022-08-23T03:26:22.409Z,18.06
2022-08-23T03:28:50.846Z,18.04
2022-08-23T03:31:21.065Z,18.03
2022-08-23T03:34:00.138Z,18.01
2022-08-23T03:36:28.568Z,18.04
2022-08-23T03:38:59.076Z,18.07
2022-08-23T03:41:27.768Z,18.09
2022-08-23T03:43:56.233Z,18.09
2022-08-23T03:46:27.095Z,18.11
2022-08-23T03:49:03.522Z,18.11
2022-08-23T03:51:42.673Z,18.07
2022-08-23T03:54:11.497Z,18.03
2022-08-23T03:56:52.048Z,17.99
2022-08-23T03:59:20.732Z,17.97
2022-08-23T04:01:50.624Z,17.94
2022-08-23T04:04:19.305Z,17.90
2022-08-23T04:07:13.630Z,17.87
2022-08-23T04:09:42.050Z,17.83
2022-08-23T04:12:17.404Z,17.80
2022-08-23T04:14:47.533Z,17.79
2022-08-23T04:17:20.987Z,17.75
2022-08-23T04:19:50.426Z,17.71
2022-08-23T04:22:21.095Z,17.71
2022-08-23T04:24:49.913Z,17.68
2022-08-23T04:27:18.758Z,17.65
2022-08-23T04:29:47.985Z,17.62
2022-08-23T04:32:26.647Z,17.59
2022-08-23T04:34:58.662Z,17.57
2022-08-23T04:37:27.961Z,17.55
2022-08-23T04:40:14.227Z,17.50
2022-08-23T04:42:44.253Z,17.44
2022-08-23T04:45:14.143Z,17.43
2022-08-23T04:47:47.635Z,17.41
2022-08-23T04:50:17.487Z,17.41
2022-08-23T04:53:06.327Z,17.38
2022-08-23T04:55:39.205Z,17.35
2022-08-23T04:58:09.322Z,17.34
2022-08-23T05:00:50.849Z,17.32
2022-08-23T05:03:24.275Z,17.32
2022-08-23T05:05:54.668Z,17.31
2022-08-23T05:08:28.976Z,17.31
2022-08-23T05:10:57.569Z,17.31
2022-08-23T05:13:26.108Z,17.35
2022-08-23T05:15:54.410Z,17.38
2022-08-23T05:18:28.696Z,17.38
2022-08-23T05:20:57.489Z,17.38
2022-08-23T05:23:31.892Z,17.35
2022-08-23T05:26:12.776Z,17.34
2022-08-23T05:28:46.065Z,17.35
2022-08-23T05:31:19.448Z,17.38
2022-08-23T05:33:54.646Z,17.38
2022-08-23T05:36:30.827Z,17.40
2022-08-23T05:38:59.338Z,17.36
2022-08-23T05:41:37.840Z,17.36
2022-08-23T05:44:08.971Z,17.35
2022-08-23T05:46:39.087Z,17.34
2022-08-23T05:49:38.211Z,17.33
2022-08-23T05:52:11.826Z,17.33
2022-08-23T05:54:41.946Z,17.34
2022-08-23T05:57:39.886Z,17.35
2022-08-23T06:00:13.543Z,17.35
2022-08-23T06:02:49.165Z,17.37
2022-08-23T06:05:20.587Z,17.37
2022-08-23T06:07:50.843Z,17.38
2022-08-23T06:10:21.655Z,17.41
2022-08-23T06:12:56.334Z,17.42
2022-08-23T06:15:24.775Z,17.44
2022-08-23T06:17:53.180Z,17.45
2022-08-23T06:20:23.701Z,17.48
2022-08-23T06:23:03.611Z,17.49
2022-08-23T06:25:32.584Z,17.51
2022-08-23T06:28:14.965Z,17.56
2022-08-23T06:30:43.980Z,17.62
2022-08-23T06:33:36.297Z,17.69
2022-08-23T06:36:25.014Z,17.73
2022-08-23T06:39:14.677Z,17.79
2022-08-23T06:42:22.224Z,17.80
2022-08-23T06:44:54.811Z,17.83
2022-08-23T06:47:37.718Z,17.87
2022-08-23T06:50:07.162Z,17.90
2022-08-23T06:53:07.226Z,17.95
2022-08-23T06:56:05.895Z,17.97
2022-08-23T06:58:54.088Z,18.01
2022-08-23T07:01:52.811Z,18.07
2022-08-23T07:04:35.513Z,18.13
2022-08-23T07:07:11.926Z,18.16
2022-08-23T07:09:42.708Z,18.24
2022-08-23T07:12:11.935Z,18.28
2022-08-23T07:14:44.150Z,18.32
2022-08-23T07:17:14.464Z,18.36
2022-08-23T07:19:43.986Z,18.42
2022-08-23T07:22:12.967Z,18.46
2022-08-23T07:24:45.810Z,18.50
2022-08-23T07:27:15.072Z,18.54
2022-08-23T07:29:53.818Z,18.57
2022-08-23T07:32:22.180Z,18.61
2022-08-23T07:34:52.048Z,18.67
2022-08-23T07:37:20.816Z,18.75
2022-08-23T07:39:50.739Z,18.85
2022-08-23T07:42:23.136Z,18.90
2022-08-23T07:44:54.362Z,18.94
2022-08-23T07:47:25.296Z,18.98
2022-08-23T07:49:56.610Z,19.02
2022-08-23T07:52:25.302Z,19.05
2022-08-23T07:54:55.362Z,19.16
2022-08-23T07:57:52.694Z,19.27
2022-08-23T08:00:47.903Z,19.37
2022-08-23T08:03:36.628Z,19.42
2022-08-23T08:06:23.636Z,19.50
2022-08-23T08:08:53.231Z,19.60
2022-08-23T08:11:33.678Z,19.72
2022-08-23T08:14:07.172Z,19.78
2022-08-23T08:16:40.478Z,19.90
2022-08-23T08:19:15.124Z,20.01
2022-08-23T08:22:02.795Z,20.00
2022-08-23T08:25:00.128Z,20.05
2022-08-23T08:27:30.181Z,20.19
2022-08-23T08:30:02.141Z,20.31
2022-08-23T08:32:31.821Z,20.42
2022-08-23T08:35:00.493Z,20.48
2022-08-23T08:37:32.129Z,20.53
2022-08-23T08:40:01.322Z,20.59
2022-08-23T08:42:55.939Z,20.64
2022-08-23T08:45:28.455Z,20.66
2022-08-23T08:48:04.173Z,20.67
2022-08-23T08:50:44.171Z,20.70
2022-08-23T08:53:17.275Z,20.80
2022-08-23T08:56:20.907Z,20.91
2022-08-23T08:59:01.883Z,20.90
2022-08-23T09:01:34.328Z,21.01
2022-08-23T09:04:04.744Z,21.04
2022-08-23T09:06:53.020Z,21.05
2022-08-23T09:10:03.785Z,21.09
2022-08-23T09:12:43.042Z,21.08
2022-08-23T09:15:27.083Z,21.14
2022-08-23T09:18:05.150Z,21.21
2022-08-23T09:20:34.953Z,21.30
2022-08-23T09:23:10.705Z,21.39
2022-08-23T09:25:41.922Z,21.42
2022-08-23T09:28:17.692Z,21.53
2022-08-23T09:30:52.950Z,21.56
2022-08-23T09:33:26.208Z,21.56
2022-08-23T09:36:17.767Z,21.63
2022-08-23T09:38:55.417Z,21.79
2022-08-23T09:41:30.075Z,21.82
2022-08-23T09:44:02.516Z,21.89
2022-08-23T09:46:38.982Z,21.96
2022-08-23T09:49:27.268Z,22.01
2022-08-23T09:52:10.428Z,22.10
2022-08-23T09:54:43.969Z,22.10
2022-08-23T09:57:27.857Z,22.22
2022-08-23T10:00:01.920Z,22.43
2022-08-23T10:02:42.319Z,22.67
2022-08-23T10:05:22.306Z,22.80
2022-08-23T10:07:57.109Z,22.94
2022-08-23T10:10:33.553Z,22.99
2022-08-23T10:13:07.637Z,23.01
2022-08-23T10:15:52.201Z,22.95
2022-08-23T10:18:35.745Z,22.90
2022-08-23T10:21:21.155Z,22.86
2022-08-23T10:24:18.193Z,22.89
2022-08-23T10:27:28.111Z,23.02
2022-08-23T10:30:06.504Z,23.02
2022-08-23T10:32:55.078Z,23.08
2022-08-23T10:35:47.508Z,23.16
2022-08-23T10:38:38.730Z,23.21
2022-08-23T10:41:39.488Z,23.24
2022-08-23T10:44:24.685Z,23.30
2022-08-23T10:47:06.547Z,23.37
2022-08-23T10:49:37.807Z,23.37
2022-08-23T10:52:13.475Z,23.45
2022-08-23T10:54:59.618Z,23.59
2022-08-23T10:57:35.449Z,23.61
2022-08-23T11:00:09.081Z,23.71
2022-08-23T11:02:46.993Z,23.85
2022-08-23T11:05:27.097Z,23.92
2022-08-23T11:08:02.759Z,23.96
2022-08-23T11:10:53.680Z,24.01
2022-08-23T11:13:32.387Z,24.02
2022-08-23T11:16:06.787Z,24.03
2022-08-23T11:18:53.358Z,24.07
2022-08-23T11:21:49.230Z,24.11
2022-08-23T11:24:54.342Z,24.15
2022-08-23T11:27:35.594Z,24.23
2022-08-23T11:30:46.687Z,24.23
2022-08-23T11:33:22.357Z,24.23
2022-08-23T11:35:54.378Z,24.29
2022-08-23T11:39:02.012Z,24.41
2022-08-23T11:41:34.589Z,24.40
2022-08-23T11:44:29.095Z,24.44
2022-08-23T11:47:45.685Z,24.60
2022-08-23T11:50:24.996Z,24.67
2022-08-23T11:53:15.918Z,24.64
2022-08-23T11:56:12.728Z,24.71
2022-08-23T11:59:08.995Z,24.78
2022-08-23T12:01:40.676Z,24.87
2022-08-23T12:04:14.706Z,25.00
2022-08-23T12:06:51.099Z,25.04
2022-08-23T12:12:40.862Z,25.38
2022-08-23T12:15:14.337Z,25.61
2022-08-23T12:18:14.881Z,25.84
2022-08-23T12:20:48.455Z,25.97
2022-08-23T12:23:22.651Z,26.11
2022-08-23T12:26:11.010Z,26.22
2022-08-23T12:28:48.071Z,26.35
2022-08-23T12:31:33.646Z,26.46
2022-08-23T12:34:18.780Z,26.63
2022-08-23T12:36:58.824Z,26.69
2022-08-23T12:39:34.366Z,26.80
2022-08-23T12:42:08.257Z,26.94
2022-08-23T12:44:36.800Z,27.01
2022-08-23T12:47:18.183Z,27.12
2022-08-23T12:49:58.759Z,27.22
2022-08-23T12:52:31.579Z,27.28
2022-08-23T12:55:00.382Z,27.39
2022-08-23T12:57:41.166Z,27.62
2022-08-23T13:00:20.386Z,27.71
2022-08-23T13:02:57.678Z,27.79
2022-08-23T13:05:39.032Z,27.82
2022-08-23T13:08:11.611Z,27.99
2022-08-23T13:10:42.919Z,28.10
2022-08-23T13:13:15.167Z,28.23
2022-08-23T13:15:50.634Z,28.37
2022-08-23T13:18:33.736Z,28.45
2022-08-23T13:21:27.665Z,28.52
2022-08-23T13:24:00.875Z,28.68
2022-08-23T13:26:38.220Z,28.95
2022-08-23T13:29:21.172Z,29.19
2022-08-23T13:31:52.867Z,29.19
2022-08-23T13:34:48.697Z,29.32
2022-08-23T13:37:22.684Z,29.46
2022-08-23T13:39:56.703Z,29.61
2022-08-23T13:42:32.955Z,29.75
2022-08-23T13:45:10.383Z,29.89
2022-08-23T13:47:39.006Z,30.11
2022-08-23T13:50:18.272Z,30.50
2022-08-23T13:53:11.408Z,31.00
2022-08-23T13:55:44.784Z,31.19
2022-08-23T13:58:18.924Z,31.57
2022-08-23T14:00:55.282Z,31.72
2022-08-23T14:03:25.310Z,31.74
2022-08-23T14:05:55.222Z,31.83
2022-08-23T14:08:23.925Z,31.95
2022-08-23T14:10:52.920Z,31.97
2022-08-23T14:13:25.899Z,32.13
2022-08-23T14:15:56.667Z,32.27
2022-08-23T14:18:27.862Z,32.20
2022-08-23T14:20:57.732Z,32.36
2022-08-23T14:23:26.807Z,32.56
2022-08-23T14:25:58.940Z,32.82
2022-08-23T14:28:31.455Z,33.04
2022-08-23T14:30:59.971Z,33.20
2022-08-23T14:33:28.843Z,33.33
2022-08-23T14:35:58.749Z,33.19
2022-08-23T14:38:27.290Z,32.91
2022-08-23T14:40:59.354Z,32.81
2022-08-23T14:43:28.890Z,33.01
2022-08-23T14:45:58.385Z,33.33
2022-08-23T14:48:26.864Z,33.58
2022-08-23T14:50:56.655Z,33.84
2022-08-23T14:53:30.920Z,33.89
2022-08-23T14:56:20.646Z,34.05
2022-08-23T14:58:48.176Z,34.03
2022-08-23T15:01:16.873Z,33.93
2022-08-23T15:03:46.331Z,33.84
2022-08-23T15:06:17.164Z,33.75
2022-08-23T15:08:47.567Z,33.79
2022-08-23T15:14:05.504Z,33.62
2022-08-23T15:16:35.480Z,33.75
2022-08-23T15:19:04.173Z,33.90
2022-08-23T15:21:32.843Z,33.89
2022-08-23T15:24:02.721Z,33.76
2022-08-23T15:26:32.537Z,33.77
2022-08-23T15:29:02.062Z,34.01
2022-08-23T15:31:30.675Z,34.22
2022-08-23T15:34:00.218Z,34.40
2022-08-23T15:36:30.016Z,34.47
2022-08-23T15:39:00.317Z,34.68
2022-08-23T15:41:30.236Z,34.76
2022-08-23T15:43:58.945Z,34.89
2022-08-23T15:46:27.618Z,34.98
2022-08-23T15:49:01.925Z,35.08
2022-08-23T15:51:31.127Z,35.14
2022-08-23T15:53:59.721Z,35.22
2022-08-23T15:56:33.653Z,35.35
2022-08-23T15:59:02.631Z,35.34
2022-08-23T16:01:33.877Z,35.43
2022-08-23T16:04:02.882Z,35.38
2022-08-23T16:06:36.297Z,35.16
2022-08-23T16:09:09.138Z,34.90
2022-08-23T16:11:42.500Z,34.81
2022-08-23T16:14:11.107Z,34.88
2022-08-23T16:16:42.100Z,34.76
2022-08-23T16:19:11.511Z,34.64
2022-08-23T16:21:40.735Z,34.51
2022-08-23T16:24:09.638Z,34.38
2022-08-23T16:26:46.697Z,34.20
2022-08-23T16:29:18.451Z,34.09
2022-08-23T16:31:48.186Z,34.05
2022-08-23T16:34:19.868Z,34.04
2022-08-23T16:36:52.357Z,34.08
2022-08-23T16:39:24.183Z,34.14
2022-08-23T16:41:54.038Z,34.09
2022-08-23T16:44:22.936Z,33.95
2022-08-23T16:46:52.330Z,33.80
2022-08-23T16:49:21.219Z,33.71
2022-08-23T16:51:50.603Z,33.59
2022-08-23T16:54:19.572Z,33.48
2022-08-23T16:56:48.218Z,33.41
2022-08-23T16:59:19.162Z,33.40
2022-08-23T17:01:50.753Z,33.47
2022-08-23T17:04:24.205Z,33.49
2022-08-23T17:06:53.926Z,33.52
2022-08-23T17:09:23.705Z,33.56
2022-08-23T17:11:54.110Z,33.55
2022-08-23T17:14:25.042Z,33.48
2022-08-23T17:16:53.505Z,33.47
2022-08-23T17:19:21.916Z,33.42
2022-08-23T17:21:50.833Z,33.35
2022-08-23T17:24:19.335Z,33.26
2022-08-23T17:26:48.633Z,33.17
2022-08-23T17:29:17.108Z,33.13
2022-08-23T17:31:50.026Z,33.03
2022-08-23T17:34:18.576Z,32.91
2022-08-23T17:36:50.000Z,32.83
2022-08-23T17:39:21.003Z,32.75
2022-08-23T17:41:50.090Z,32.66
2022-08-23T17:44:20.316Z,32.56
2022-08-23T17:46:50.378Z,32.46
2022-08-23T17:49:21.460Z,32.37
2022-08-23T17:51:49.800Z,32.28
2022-08-23T17:54:18.399Z,32.19
2022-08-23T17:56:50.497Z,32.11
2022-08-23T17:59:19.979Z,32.00
2022-08-23T18:01:49.931Z,31.88
2022-08-23T18:04:18.308Z,31.77
2022-08-23T18:06:47.537Z,31.68
2022-08-23T18:09:16.759Z,31.58
2022-08-23T18:11:46.401Z,31.50
2022-08-23T18:14:14.894Z,31.43
2022-08-23T18:16:45.674Z,31.36
2022-08-23T18:19:15.652Z,31.29
2022-08-23T18:21:45.160Z,31.21
2022-08-23T18:24:14.057Z,31.11
2022-08-23T18:27:00.979Z,31.04
2022-08-23T18:29:29.887Z,30.91
2022-08-23T18:31:58.698Z,30.83
2022-08-23T18:34:29.513Z,30.74
2022-08-23T18:36:58.657Z,30.67
2022-08-23T18:39:31.966Z,30.59
2022-08-23T18:42:01.994Z,30.52
2022-08-23T18:44:31.228Z,30.44
2022-08-23T18:47:01.301Z,30.36
2022-08-23T18:49:33.493Z,30.25
2022-08-23T18:52:02.657Z,30.19
2022-08-23T18:54:33.839Z,30.13
2022-08-23T18:57:02.930Z,30.05
2022-08-23T18:59:31.579Z,30.00
2022-08-23T19:02:00.499Z,29.89
2022-08-23T19:04:31.199Z,29.80
2022-08-23T19:06:59.788Z,29.73
2022-08-23T19:09:28.178Z,29.66
2022-08-23T19:11:56.932Z,29.56
2022-08-23T19:14:25.364Z,29.45
2022-08-23T19:16:53.952Z,29.34
2022-08-23T19:19:23.961Z,29.21
2022-08-23T19:21:53.718Z,29.11
2022-08-23T19:24:23.620Z,29.00
2022-08-23T19:26:52.568Z,28.92
2022-08-23T19:29:21.726Z,28.81
2022-08-23T19:31:50.580Z,28.70
2022-08-23T19:34:22.173Z,28.62
2022-08-23T19:37:00.237Z,28.55
2022-08-23T19:39:31.703Z,28.49
2022-08-23T19:42:00.053Z,28.44
2022-08-23T19:44:28.845Z,28.39
2022-08-23T19:46:57.628Z,28.33
2022-08-23T19:49:26.023Z,28.24
2022-08-23T19:51:54.877Z,28.19
2022-08-23T19:54:23.282Z,28.13
2022-08-23T19:56:58.412Z,28.03
2022-08-23T19:59:30.683Z,27.95
2022-08-23T20:02:00.190Z,27.88
2022-08-23T20:04:32.518Z,27.82
2022-08-23T20:07:02.842Z,27.76
2022-08-23T20:09:32.941Z,27.69
2022-08-23T20:12:03.168Z,27.60
2022-08-23T20:14:33.218Z,27.53
2022-08-23T20:17:04.299Z,27.42
2022-08-23T20:19:32.798Z,27.35
2022-08-23T20:22:16.220Z,27.26
2022-08-23T20:24:53.361Z,27.16
2022-08-23T20:27:24.187Z,26.99
2022-08-23T20:30:00.237Z,26.92
2022-08-23T20:32:28.802Z,26.88
2022-08-23T20:34:57.163Z,26.80
2022-08-23T20:37:25.762Z,26.74
2022-08-23T20:39:54.638Z,26.69
2022-08-23T20:42:25.361Z,26.61
2022-08-23T20:44:53.919Z,26.54
2022-08-23T20:47:22.417Z,26.45
2022-08-23T20:49:51.020Z,26.36
2022-08-23T20:52:19.377Z,26.29
2022-08-23T20:54:47.836Z,26.23
2022-08-23T20:57:16.162Z,26.18
2022-08-23T20:59:46.434Z,26.08
2022-08-23T21:02:14.926Z,26.03
2022-08-23T21:04:43.318Z,25.98
2022-08-23T21:07:12.535Z,25.93
2022-08-23T21:09:41.677Z,25.86
2022-08-23T21:12:10.329Z,25.82
2022-08-23T21:14:38.990Z,25.80
2022-08-23T21:17:08.913Z,25.76
2022-08-23T21:19:38.102Z,25.72
2022-08-23T21:22:07.146Z,25.67
2022-08-23T21:24:35.996Z,25.59
2022-08-23T21:27:09.443Z,25.51
2022-08-23T21:29:38.910Z,25.45
2022-08-23T21:32:09.306Z,25.43
2022-08-23T21:34:37.890Z,25.37
2022-08-23T21:37:06.591Z,25.30
2022-08-23T21:39:35.347Z,25.21
2022-08-23T21:42:14.181Z,25.13
2022-08-23T21:44:45.079Z,25.06
2022-08-23T21:47:16.043Z,25.02
2022-08-23T21:49:44.621Z,24.97
2022-08-23T21:52:13.019Z,24.92
2022-08-23T21:54:43.576Z,24.94
2022-08-23T21:57:12.326Z,24.78
2022-08-23T21:59:41.383Z,24.75
2022-08-23T22:02:10.194Z,24.73
2022-08-23T22:04:40.160Z,24.71
2022-08-23T22:07:08.707Z,24.68
2022-08-23T22:09:37.276Z,24.61
2022-08-23T22:12:06.467Z,24.49
2022-08-23T22:14:34.981Z,24.38
2022-08-23T22:17:03.622Z,24.33
2022-08-23T22:19:32.109Z,24.21
2022-08-23T22:22:02.859Z,24.14
2022-08-23T22:24:31.544Z,24.06
2022-08-23T22:26:59.921Z,23.97
2022-08-23T22:29:28.284Z,23.92
2022-08-23T22:31:56.589Z,23.85
2022-08-23T22:34:25.345Z,23.76
2022-08-23T22:36:55.104Z,23.70
2022-08-23T22:39:25.149Z,23.60
2022-08-23T22:41:54.173Z,23.52
2022-08-23T22:44:22.861Z,23.35
2022-08-23T22:46:51.143Z,23.21
2022-08-23T22:49:19.533Z,23.11
2022-08-23T22:51:49.199Z,23.06
2022-08-23T22:54:25.510Z,22.97
2022-08-23T22:56:55.084Z,22.94
2022-08-23T22:59:27.522Z,22.81
2022-08-23T23:01:58.452Z,22.77
2022-08-23T23:04:29.435Z,22.64
2022-08-23T23:06:58.260Z,22.57
2022-08-23T23:09:28.369Z,22.51
2022-08-23T23:11:56.975Z,22.49
2022-08-23T23:14:25.564Z,22.45
2022-08-23T23:16:54.414Z,22.47
2022-08-23T23:19:40.435Z,22.49
2022-08-23T23:22:10.101Z,22.50
2022-08-23T23:24:41.144Z,22.45
2022-08-23T23:27:10.022Z,22.42
2022-08-23T23:29:38.482Z,22.42
2022-08-23T23:32:07.681Z,22.40
2022-08-23T23:34:37.810Z,22.35
2022-08-23T23:37:06.600Z,22.38
2022-08-23T23:39:35.058Z,22.44
2022-08-23T23:42:05.348Z,22.43
2022-08-23T23:44:33.721Z,22.41
2022-08-23T23:47:02.891Z,22.35
2022-08-23T23:49:33.603Z,22.35
2022-08-23T23:52:04.180Z,22.41
2022-08-23T23:54:33.866Z,22.45
2022-08-23T23:57:04.070Z,22.45
2022-08-23T23:59:32.459Z,22.45
